Time;durP1;ratioP1;P1;durP2;ratioP2;P2;SDS_P1;SDS_P2;PMS_P1;PMS_P2;Temp;Humidity;BMP_temperature;BMP_pressure;BME280_temperature;BME280_humidity;BME280_pressure;Samples;Min_cycle;Max_cycle;Signal;HPM_P1;HPM_P2
2022/04/06 00:01:45;;;;;;;33.05;14.68;;;8.30;99.90;;;;;;5018596;28;20063;-72
2022/04/06 00:04:11;;;;;;;32.72;15.43;;;8.40;99.90;;;;;;5034924;28;20041;-72
2022/04/06 00:06:37;;;;;;;34.42;15.50;;;8.60;99.90;;;;;;5018480;28;20381;-72
2022/04/06 00:09:03;;;;;;;32.33;15.63;;;8.40;99.90;;;;;;5034908;28;20099;-72
2022/04/06 00:11:30;;;;;;;29.77;14.88;;;9.10;99.90;;;;;;5035161;28;20045;-72
2022/04/06 00:13:57;;;;;;;35.63;14.23;;;8.40;99.90;;;;;;5034731;28;20056;-72
2022/04/06 00:16:23;;;;;;;28.55;13.95;;;8.40;99.90;;;;;;5034676;28;20052;-73
2022/04/06 00:18:49;;;;;;;31.58;14.38;;;8.40;99.90;;;;;;5034870;28;20059;-73
2022/04/06 00:21:14;;;;;;;32.55;14.25;;;9.30;99.90;;;;;;5018577;28;20033;-72
2022/04/06 00:23:40;;;;;;;31.95;13.68;;;8.40;99.90;;;;;;5035126;28;20114;-73
2022/04/06 00:26:06;;;;;;;31.95;13.40;;;8.40;99.90;;;;;;5034767;28;20047;-72
2022/04/06 00:28:32;;;;;;;32.15;14.65;;;8.50;99.90;;;;;;5034693;28;20472;-72
2022/04/06 00:30:57;;;;;;;32.08;11.93;;;8.50;99.90;;;;;;5031281;28;20110;-72
2022/04/06 00:33:23;;;;;;;25.38;11.48;;;8.50;99.90;;;;;;5037202;28;20062;-72
2022/04/06 00:35:50;;;;;;;32.58;12.82;;;8.50;99.90;;;;;;5054302;28;20044;-72
2022/04/06 00:38:17;;;;;;;25.27;12.85;;;8.50;99.90;;;;;;5054454;28;20484;-72
2022/04/06 00:40:43;;;;;;;32.22;13.23;;;8.50;99.90;;;;;;5054500;28;20036;-72
2022/04/06 00:43:12;;;;;;;28.30;13.35;;;8.50;99.90;;;;;;5054379;28;20081;-72
2022/04/06 00:45:39;;;;;;;23.27;13.23;;;8.90;99.90;;;;;;5037705;28;20133;-72
2022/04/06 00:48:05;;;;;;;29.55;12.60;;;8.50;99.90;;;;;;5037938;28;20040;-72
2022/04/06 00:50:31;;;;;;;27.10;12.15;;;8.50;99.90;;;;;;5037621;28;20076;-72
2022/04/06 00:52:57;;;;;;;40.38;14.20;;;8.50;99.90;;;;;;5054456;28;20137;-72
2022/04/06 00:55:30;;;;;;;28.83;10.95;;;8.60;99.90;;;;;;5054181;28;20041;-72
2022/04/06 00:57:56;;;;;;;27.48;12.85;;;8.50;99.90;;;;;;5054143;28;20033;-72
2022/04/06 01:00:22;;;;;;;23.55;12.13;;;8.80;99.90;;;;;;5037438;28;20055;-72
2022/04/06 01:02:48;;;;;;;30.77;12.50;;;8.60;99.90;;;;;;5054270;28;20491;-72
2022/04/06 01:05:14;;;;;;;26.23;11.52;;;8.60;99.90;;;;;;5054341;28;20049;-72
2022/04/06 01:07:42;;;;;;;30.08;11.98;;;8.60;99.90;;;;;;5053391;28;20043;-72
2022/04/06 01:10:08;;;;;;;29.08;12.80;;;8.60;99.90;;;;;;5054170;28;20052;-72
2022/04/06 01:12:43;;;;;;;27.00;12.43;;;8.60;99.90;;;;;;5037301;28;20066;-72
2022/04/06 01:15:09;;;;;;;25.35;11.90;;;8.60;99.90;;;;;;5053850;28;20080;-72
2022/04/06 01:17:35;;;;;;;26.48;11.68;;;8.60;99.90;;;;;;5037188;28;20094;-72
2022/04/06 01:20:03;;;;;;;25.23;10.38;;;8.80;99.90;;;;;;5037252;28;20086;-72
2022/04/06 01:22:29;;;;;;;27.52;12.50;;;8.60;99.90;;;;;;5053763;28;20044;-72
2022/04/06 01:24:55;;;;;;;25.10;12.80;;;8.60;99.90;;;;;;5037234;28;20040;-72
2022/04/06 01:27:20;;;;;;;24.67;14.23;;;8.60;99.90;;;;;;5037199;28;20036;-72
2022/04/06 01:29:47;;;;;;;31.27;14.40;;;9.40;99.90;;;;;;5050204;28;20143;-72
2022/04/06 01:32:16;;;;;;;34.95;14.65;;;8.60;99.90;;;;;;5000894;28;20076;-71
2022/04/06 01:34:42;;;;;;;30.98;15.10;;;8.60;99.90;;;;;;5050081;28;20045;-72
2022/04/06 01:37:10;;;;;;;27.20;13.10;;;9.00;99.90;;;;;;5033830;28;20112;-72
2022/04/06 01:39:37;;;;;;;24.77;12.55;;;8.60;99.90;;;;;;5033636;28;20120;-72
2022/04/06 01:42:04;;;;;;;20.25;12.30;;;8.60;99.90;;;;;;5033820;28;20045;-72
2022/04/06 01:44:32;;;;;;;26.52;12.40;;;8.70;99.90;;;;;;5033980;28;20076;-72
2022/04/06 01:46:59;;;;;;;32.58;12.43;;;8.70;99.90;;;;;;5050170;28;20076;-71
2022/04/06 01:52:13;;;;;;;23.75;11.75;;;8.90;99.90;;;;;;5050453;28;20056;-71
2022/04/06 01:54:50;;;;;;;26.67;12.45;;;8.70;99.90;;;;;;5033447;28;20463;-72
2022/04/06 01:57:17;;;;;;;24.88;12.48;;;8.70;99.90;;;;;;5050434;28;20043;-72
2022/04/06 01:59:43;;;;;;;19.77;10.95;;;8.70;99.90;;;;;;5033632;28;20037;-71
2022/04/06 02:02:11;;;;;;;22.95;11.45;;;8.70;99.90;;;;;;5033626;28;20045;-72
2022/04/06 02:04:38;;;;;;;23.88;11.52;;;8.70;99.90;;;;;;5050104;28;20041;-71
2022/04/06 02:07:04;;;;;;;24.40;11.57;;;8.70;99.90;;;;;;5033661;28;20392;-71
2022/04/06 02:09:30;;;;;;;27.75;11.90;;;8.70;99.90;;;;;;5033488;28;20029;-71
2022/04/06 02:11:56;;;;;;;17.67;9.32;;;8.70;99.90;;;;;;5033713;28;20090;-71
2022/04/06 02:14:23;;;;;;;19.77;9.50;;;8.70;99.90;;;;;;5033354;28;20089;-71
2022/04/06 02:16:48;;;;;;;16.58;8.48;;;8.70;99.90;;;;;;5050230;28;20044;-72
2022/04/06 02:19:14;;;;;;;20.08;8.85;;;8.70;99.90;;;;;;5053651;28;20044;-71
2022/04/06 02:21:40;;;;;;;20.50;8.25;;;8.80;99.90;;;;;;5053596;28;20068;-71
2022/04/06 02:24:06;;;;;;;17.38;7.95;;;8.80;99.90;;;;;;5053963;28;20407;-71
2022/04/06 02:26:31;;;;;;;20.92;9.15;;;8.80;99.90;;;;;;5053605;28;20055;-71
2022/04/06 02:28:59;;;;;;;15.93;8.68;;;9.30;99.90;;;;;;5055914;28;20041;-72
2022/04/06 02:31:25;;;;;;;16.17;9.07;;;8.70;99.90;;;;;;5056859;28;20048;-71
2022/04/06 02:33:51;;;;;;;15.40;8.45;;;8.80;99.90;;;;;;5040171;28;20123;-71
2022/04/06 02:36:17;;;;;;;22.08;8.75;;;8.80;99.90;;;;;;5056807;28;20138;-72
2022/04/06 02:38:44;;;;;;;18.27;7.80;;;8.80;99.90;;;;;;5056785;28;20139;-71
2022/04/06 02:41:10;;;;;;;19.17;8.13;;;8.80;99.90;;;;;;5056642;28;20037;-71
2022/04/06 02:43:36;;;;;;;12.73;6.63;;;8.70;99.90;;;;;;5056803;28;20486;-71
2022/04/06 02:46:02;;;;;;;13.57;6.20;;;8.70;99.90;;;;;;5040273;28;20072;-71
2022/04/06 02:48:28;;;;;;;19.10;7.00;;;8.80;99.90;;;;;;5039842;28;20506;-71
2022/04/06 02:50:54;;;;;;;14.10;6.68;;;8.80;99.90;;;;;;5056782;28;20123;-71
2022/04/06 02:53:20;;;;;;;19.67;7.72;;;8.70;99.90;;;;;;5039916;28;20123;-72
2022/04/06 02:55:46;;;;;;;17.92;7.50;;;8.70;99.90;;;;;;5039644;28;20132;-71
2022/04/06 02:58:11;;;;;;;20.88;8.00;;;9.00;99.90;;;;;;5056340;28;20044;-71
2022/04/06 03:00:37;;;;;;;20.73;7.60;;;8.70;99.90;;;;;;5039931;28;20094;-71
2022/04/06 03:03:03;;;;;;;17.40;6.20;;;8.70;99.90;;;;;;5056218;28;20032;-71
2022/04/06 03:05:29;;;;;;;16.30;7.13;;;8.60;99.90;;;;;;5039848;28;20050;-71
2022/04/06 03:07:55;;;;;;;19.85;7.90;;;9.10;99.90;;;;;;5039530;28;20081;-72
2022/04/06 03:10:22;;;;;;;20.13;7.15;;;8.70;99.90;;;;;;5039782;28;20434;-72
2022/04/06 03:12:47;;;;;;;17.20;6.32;;;8.70;99.90;;;;;;5039533;28;20411;-72
2022/04/06 03:15:14;;;;;;;14.18;6.43;;;10.30;99.90;;;;;;5056057;28;20051;-72
2022/04/06 03:17:41;;;;;;;15.75;6.10;;;8.70;99.90;;;;;;5056034;28;20040;-72
2022/04/06 03:20:08;;;;;;;15.60;6.25;;;8.70;99.90;;;;;;5055986;28;20185;-72
2022/04/06 03:22:34;;;;;;;15.45;6.68;;;8.70;99.90;;;;;;5056144;28;20116;-72
2022/04/06 03:25:00;;;;;;;17.35;6.18;;;8.70;99.90;;;;;;5039330;28;20166;-72
2022/04/06 03:27:26;;;;;;;13.02;6.30;;;8.70;99.90;;;;;;5056107;28;20051;-72
2022/04/06 03:29:51;;;;;;;17.30;7.10;;;8.70;99.90;;;;;;5038712;28;20143;-72
2022/04/06 03:32:17;;;;;;;19.20;6.75;;;8.60;99.90;;;;;;5056116;28;20052;-72
2022/04/06 03:34:43;;;;;;;16.48;7.03;;;8.70;99.90;;;;;;5055804;28;20032;-72
2022/04/06 03:37:09;;;;;;;16.85;7.18;;;8.70;99.90;;;;;;5055579;28;20040;-72
2022/04/06 03:39:34;;;;;;;16.67;7.57;;;8.60;99.90;;;;;;5055889;28;20391;-72
2022/04/06 03:42:00;;;;;;;22.35;7.25;;;8.70;99.90;;;;;;5055533;28;20044;-72
2022/04/06 03:44:26;;;;;;;21.08;8.45;;;8.70;99.90;;;;;;5039211;28;20037;-73
2022/04/06 03:46:53;;;;;;;21.90;8.65;;;8.70;99.90;;;;;;5055488;28;20044;-72
2022/04/06 03:49:19;;;;;;;29.05;8.85;;;8.70;99.90;;;;;;5039009;28;20048;-72
2022/04/06 03:51:45;;;;;;;25.73;9.30;;;8.70;99.90;;;;;;5055375;28;20043;-72
2022/04/06 03:54:11;;;;;;;17.65;8.65;;;8.70;99.90;;;;;;5055539;28;20553;-72
2022/04/06 03:56:37;;;;;;;26.23;7.75;;;9.00;99.90;;;;;;5055134;28;20052;-72
2022/04/06 03:59:04;;;;;;;27.58;10.43;;;8.70;99.90;;;;;;5038621;28;20040;-71
2022/04/06 04:01:36;;;;;;;30.33;10.65;;;8.70;99.90;;;;;;5055275;28;20492;-72
2022/04/06 04:04:04;;;;;;;26.38;10.38;;;9.40;99.90;;;;;;5055327;28;20166;-72
2022/04/06 04:06:30;;;;;;;24.65;8.73;;;8.70;99.90;;;;;;5055036;28;20047;-72
2022/04/06 04:08:56;;;;;;;21.27;9.60;;;9.00;99.90;;;;;;5055045;28;20048;-72
2022/04/06 04:11:22;;;;;;;22.95;10.80;;;8.70;99.90;;;;;;5038398;28;20063;-72
2022/04/06 04:13:48;;;;;;;23.90;11.20;;;8.70;99.90;;;;;;5055202;28;20048;-72
2022/04/06 04:16:14;;;;;;;24.45;9.75;;;8.70;99.90;;;;;;5054843;28;20047;-72
2022/04/06 04:18:41;;;;;;;27.08;11.98;;;8.70;99.90;;;;;;5054994;28;20043;-72
2022/04/06 04:23:50;;;;;;;28.17;11.77;;;8.80;99.90;;;;;;5054651;28;20043;-72
2022/04/06 04:26:16;;;;;;;19.77;10.50;;;8.80;99.90;;;;;;5054643;28;20422;-72
2022/04/06 04:28:42;;;;;;;24.45;10.90;;;8.80;99.90;;;;;;5054472;28;20052;-72
2022/04/06 04:31:08;;;;;;;32.95;12.07;;;8.80;99.90;;;;;;5054647;28;20431;-72
2022/04/06 04:33:33;;;;;;;24.42;10.52;;;9.10;99.90;;;;;;5038020;28;20388;-72
2022/04/06 04:35:59;;;;;;;24.85;11.23;;;8.80;99.90;;;;;;5038130;28;20045;-72
2022/04/06 04:38:24;;;;;;;27.25;11.50;;;8.80;99.90;;;;;;5054669;28;20040;-72
2022/04/06 04:40:51;;;;;;;25.95;10.55;;;9.00;99.90;;;;;;5037166;28;20036;-72
2022/04/06 04:43:17;;;;;;;22.40;10.52;;;8.80;99.90;;;;;;5054191;28;20044;-72
2022/04/06 04:45:42;;;;;;;21.08;9.80;;;8.80;99.90;;;;;;5054559;28;20368;-72
2022/04/06 04:48:08;;;;;;;28.05;10.82;;;8.80;99.90;;;;;;5037915;28;20048;-72
2022/04/06 04:50:34;;;;;;;20.30;9.93;;;8.70;99.90;;;;;;5054347;28;20113;-72
2022/04/06 04:52:59;;;;;;;29.40;10.45;;;8.70;99.90;;;;;;5037597;28;20041;-72
2022/04/06 04:55:25;;;;;;;19.40;8.73;;;8.70;99.90;;;;;;5054025;28;20119;-72
2022/04/06 04:57:51;;;;;;;20.38;9.27;;;8.70;99.90;;;;;;5054002;28;20028;-72
2022/04/06 05:00:17;;;;;;;21.95;9.40;;;8.90;99.90;;;;;;5037566;28;20256;-72
2022/04/06 05:02:42;;;;;;;24.05;8.77;;;8.60;99.90;;;;;;5054315;28;20040;-73
2022/04/06 05:05:11;;;;;;;21.50;7.88;;;8.60;99.90;;;;;;5037705;28;20037;-73
2022/04/06 05:07:37;;;;;;;21.92;9.57;;;8.60;99.90;;;;;;5054148;28;20519;-73
2022/04/06 05:10:10;;;;;;;14.98;7.85;;;8.90;99.90;;;;;;5037564;28;20037;-72
2022/04/06 05:12:36;;;;;;;20.80;8.25;;;8.60;99.90;;;;;;5054027;28;20043;-73
2022/04/06 05:15:04;;;;;;;21.23;8.05;;;8.50;99.90;;;;;;5054063;28;20439;-73
2022/04/06 05:17:30;;;;;;;19.50;8.07;;;8.50;99.90;;;;;;5054038;28;20041;-72
2022/04/06 05:19:56;;;;;;;20.33;8.25;;;8.50;99.90;;;;;;5053923;28;20041;-73
2022/04/06 05:22:22;;;;;;;18.23;8.40;;;8.40;99.90;;;;;;5037122;28;20080;-73
2022/04/06 05:24:48;;;;;;;14.85;7.18;;;8.40;99.90;;;;;;5070400;28;20098;-73
2022/04/06 05:27:14;;;;;;;20.88;8.30;;;8.40;99.90;;;;;;5037020;28;20403;-73
2022/04/06 05:29:41;;;;;;;20.58;8.27;;;8.40;99.90;;;;;;5037185;28;20094;-73
2022/04/06 05:32:07;;;;;;;16.55;6.78;;;8.50;99.90;;;;;;5053639;28;20080;-73
2022/04/06 05:34:35;;;;;;;17.55;7.15;;;8.40;99.90;;;;;;5037341;28;20046;-72
2022/04/06 05:37:01;;;;;;;19.02;6.85;;;8.40;99.90;;;;;;5037685;28;20036;-73
2022/04/06 05:39:27;;;;;;;18.77;5.18;;;8.40;99.90;;;;;;5053619;28;20041;-72
2022/04/06 05:41:53;;;;;;;14.43;6.00;;;8.40;99.90;;;;;;5053546;28;20036;-72
2022/04/06 05:44:18;;;;;;;17.83;6.10;;;8.40;99.90;;;;;;5037331;28;20127;-74
2022/04/06 05:46:44;;;;;;;11.98;5.18;;;8.30;99.90;;;;;;5053781;28;20181;-73
2022/04/06 05:49:10;;;;;;;13.15;5.30;;;8.40;99.90;;;;;;5053401;28;20080;-74
2022/04/06 05:51:36;;;;;;;15.77;5.78;;;8.40;99.90;;;;;;5053754;28;20488;-73
2022/04/06 05:54:03;;;;;;;10.90;4.88;;;8.60;99.90;;;;;;5057074;28;20130;-74
2022/04/06 05:56:29;;;;;;;12.90;4.05;;;8.40;99.90;;;;;;5040761;28;20036;-74
2022/04/06 05:58:55;;;;;;;15.52;4.57;;;8.40;99.90;;;;;;5057379;28;20043;-72
2022/04/06 06:01:21;;;;;;;15.65;4.78;;;8.40;99.90;;;;;;5041063;28;20037;-73
2022/04/06 06:03:47;;;;;;;12.65;5.00;;;9.00;99.90;;;;;;5058334;28;20152;-75
2022/04/06 06:06:12;;;;;;;15.32;5.60;;;8.40;99.90;;;;;;5040973;28;20050;-72
2022/04/06 06:08:38;;;;;;;13.35;4.80;;;8.40;99.90;;;;;;5057199;28;20041;-73
2022/04/06 06:11:05;;;;;;;10.38;4.32;;;8.40;99.90;;;;;;5040706;28;20410;-73
2022/04/06 06:13:31;;;;;;;10.40;4.43;;;8.60;99.90;;;;;;5057060;28;20044;-73
2022/04/06 06:15:57;;;;;;;13.65;4.30;;;8.40;99.90;;;;;;5040315;28;20045;-74
2022/04/06 06:18:25;;;;;;;13.40;4.55;;;8.40;99.90;;;;;;5057059;28;20036;-74
2022/04/06 06:20:51;;;;;;;10.13;5.07;;;8.40;99.90;;;;;;5056904;28;20094;-73
2022/04/06 06:23:16;;;;;;;18.15;5.15;;;8.40;99.90;;;;;;5073535;28;20040;-74
2022/04/06 06:25:42;;;;;;;9.95;3.53;;;8.40;99.90;;;;;;5040324;28;20554;-73
2022/04/06 06:28:08;;;;;;;19.80;6.15;;;8.40;99.90;;;;;;5040218;28;20040;-74
2022/04/06 06:30:34;;;;;;;8.38;3.92;;;8.30;99.90;;;;;;5056520;28;20060;-73
2022/04/06 06:33:00;;;;;;;15.50;4.70;;;8.90;99.90;;;;;;5040371;28;20434;-73
2022/04/06 06:35:26;;;;;;;10.45;4.07;;;8.30;99.90;;;;;;5040022;28;20044;-73
2022/04/06 06:37:54;;;;;;;13.07;4.90;;;8.30;99.90;;;;;;5056568;28;20044;-74
2022/04/06 06:40:21;;;;;;;12.05;4.25;;;8.30;99.90;;;;;;5056731;28;20040;-74
2022/04/06 06:42:47;;;;;;;8.23;3.70;;;8.30;99.90;;;;;;5039950;28;20052;-73
2022/04/06 06:45:13;;;;;;;13.10;4.45;;;8.20;99.90;;;;;;5073588;28;20085;-74
2022/04/06 06:47:42;;;;;;;12.05;5.05;;;8.20;99.90;;;;;;5023699;28;20139;-74
2022/04/06 06:50:10;;;;;;;11.75;3.78;;;8.20;99.90;;;;;;5039911;28;20171;-73
2022/04/06 06:52:36;;;;;;;9.55;4.38;;;8.20;99.90;;;;;;5056721;28;20513;-74
2022/04/06 06:55:07;;;;;;;11.38;4.25;;;8.20;99.90;;;;;;5056339;28;20067;-74
2022/04/06 06:57:33;;;;;;;9.35;3.92;;;8.20;99.90;;;;;;5056418;28;20033;-73
2022/04/06 06:59:59;;;;;;;10.07;3.35;;;8.20;99.90;;;;;;5072979;28;20441;-73
2022/04/06 07:02:25;;;;;;;14.10;3.95;;;8.20;99.90;;;;;;5039921;28;20095;-74
2022/04/06 07:04:51;;;;;;;11.50;3.90;;;8.20;99.90;;;;;;5055487;28;20052;-73
2022/04/06 07:07:17;;;;;;;13.52;4.35;;;8.20;99.90;;;;;;5056564;28;20051;-73
2022/04/06 07:09:43;;;;;;;12.95;4.18;;;8.30;99.90;;;;;;5056040;28;20045;-73
2022/04/06 07:12:10;;;;;;;14.18;4.30;;;8.30;99.90;;;;;;5055995;28;20048;-73
2022/04/06 07:14:36;;;;;;;9.85;3.38;;;8.30;99.90;;;;;;5039711;28;20059;-74
2022/04/06 07:17:02;;;;;;;11.65;4.38;;;8.30;99.90;;;;;;5055981;28;20119;-73
2022/04/06 07:19:28;;;;;;;16.45;5.03;;;8.30;99.90;;;;;;5056198;28;20101;-74
2022/04/06 07:21:53;;;;;;;16.20;5.05;;;8.40;99.90;;;;;;5039672;28;20045;-73
2022/04/06 07:24:19;;;;;;;13.23;4.20;;;8.30;99.90;;;;;;5039566;28;20037;-74
2022/04/06 07:26:45;;;;;;;13.40;3.88;;;8.50;99.90;;;;;;5039610;28;20047;-73
2022/04/06 07:29:15;;;;;;;18.75;4.55;;;8.90;99.90;;;;;;5039031;28;20056;-73
2022/04/06 07:31:44;;;;;;;11.48;3.72;;;9.00;99.90;;;;;;5039664;28;20161;-73
2022/04/06 07:34:10;;;;;;;9.73;4.20;;;8.30;99.90;;;;;;5055929;28;20484;-73
2022/04/06 07:36:37;;;;;;;15.93;3.42;;;8.60;99.90;;;;;;5055479;28;20049;-73
2022/04/06 07:39:04;;;;;;;15.93;4.57;;;8.70;99.90;;;;;;5039149;28;20040;-73
2022/04/06 07:41:31;;;;;;;13.73;4.30;;;8.30;99.90;;;;;;5055486;28;20037;-73
2022/04/06 07:43:57;;;;;;;16.75;4.22;;;8.30;99.90;;;;;;5039314;28;20131;-73
2022/04/06 07:46:22;;;;;;;17.23;3.72;;;8.60;99.90;;;;;;5055692;28;20131;-73
2022/04/06 07:48:49;;;;;;;9.27;3.90;;;8.40;99.90;;;;;;5039080;28;20032;-73
2022/04/06 07:51:15;;;;;;;14.27;4.05;;;8.50;99.90;;;;;;5055536;28;20219;-73
2022/04/06 07:53:41;;;;;;;8.98;4.70;;;8.40;99.90;;;;;;5055578;28;20040;-71
2022/04/06 07:56:06;;;;;;;12.05;4.95;;;8.40;99.90;;;;;;5038688;28;20384;-71
2022/04/06 07:58:35;;;;;;;11.23;4.65;;;8.40;99.90;;;;;;5038647;28;20471;-72
2022/04/06 08:01:02;;;;;;;10.48;4.00;;;8.40;99.90;;;;;;5055476;28;20487;-72
2022/04/06 08:03:29;;;;;;;9.88;3.97;;;8.40;99.90;;;;;;5055119;28;20044;-72
2022/04/06 08:05:56;;;;;;;11.15;3.45;;;8.60;99.90;;;;;;5054759;28;20047;-72
2022/04/06 08:08:22;;;;;;;12.80;4.38;;;8.50;99.90;;;;;;5055001;28;20139;-73
2022/04/06 08:10:47;;;;;;;14.95;6.10;;;8.50;99.90;;;;;;5055295;28;20443;-73
2022/04/06 08:13:13;;;;;;;16.52;4.93;;;8.50;99.90;;;;;;5039019;28;20040;-73
2022/04/06 08:15:39;;;;;;;10.65;4.20;;;8.60;99.90;;;;;;5038056;28;20094;-73
2022/04/06 08:18:06;;;;;;;13.63;5.30;;;8.60;99.90;;;;;;5038284;28;20040;-73
2022/04/06 08:20:32;;;;;;;12.68;5.25;;;8.50;99.90;;;;;;5038377;28;20048;-73
2022/04/06 08:22:58;;;;;;;13.45;4.82;;;8.70;99.90;;;;;;5038164;28;20149;-73
2022/04/06 08:25:23;;;;;;;18.83;4.50;;;8.60;99.90;;;;;;5054567;28;20127;-73
2022/04/06 08:27:49;;;;;;;20.00;5.40;;;8.60;99.90;;;;;;5054722;28;20447;-73
2022/04/06 08:30:16;;;;;;;14.38;5.57;;;8.60;99.90;;;;;;5054253;28;20065;-73
2022/04/06 08:32:42;;;;;;;12.40;4.65;;;8.60;99.90;;;;;;5054431;28;20137;-73
2022/04/06 08:35:09;;;;;;;16.65;6.38;;;8.60;99.90;;;;;;5038032;28;20127;-73
2022/04/06 08:37:35;;;;;;;11.65;4.60;;;8.70;99.90;;;;;;5054501;28;20032;-72
2022/04/06 08:40:01;;;;;;;14.57;5.30;;;8.70;99.90;;;;;;5054495;28;20044;-72
2022/04/06 08:42:32;;;;;;;8.45;4.88;;;8.70;99.90;;;;;;5054668;28;20422;-73
2022/04/06 08:45:01;;;;;;;15.60;5.88;;;8.70;99.90;;;;;;5054346;28;20044;-72
2022/04/06 08:47:30;;;;;;;12.98;6.07;;;9.70;99.90;;;;;;5054601;28;20500;-72
2022/04/06 08:49:55;;;;;;;10.45;5.05;;;8.70;99.90;;;;;;5037658;28;20079;-72
2022/04/06 08:52:21;;;;;;;13.40;5.75;;;8.80;99.90;;;;;;5054245;28;20092;-72
2022/04/06 08:54:47;;;;;;;15.10;5.97;;;8.70;99.90;;;;;;5054072;28;20442;-72
2022/04/06 08:57:13;;;;;;;12.25;5.57;;;8.70;99.90;;;;;;5054426;28;20101;-73
2022/04/06 08:59:39;;;;;;;15.73;7.38;;;8.80;99.90;;;;;;5037464;28;20047;-72
2022/04/06 09:02:05;;;;;;;13.65;4.80;;;8.80;99.90;;;;;;5037820;28;20044;-72
2022/04/06 09:04:35;;;;;;;12.80;5.20;;;9.20;99.90;;;;;;5054374;28;20083;-72
2022/04/06 09:07:08;;;;;;;13.10;6.05;;;8.80;99.90;;;;;;5053926;28;20051;-72
2022/04/06 09:09:35;;;;;;;14.00;4.57;;;8.80;99.90;;;;;;5054238;28;20075;-72
2022/04/06 09:12:07;;;;;;;13.95;5.95;;;8.80;99.90;;;;;;5053938;28;20049;-73
2022/04/06 09:14:33;;;;;;;17.25;5.63;;;8.80;99.90;;;;;;5037598;28;20518;-73
2022/04/06 09:17:07;;;;;;;10.68;4.10;;;9.00;99.90;;;;;;5053818;28;20175;-73
2022/04/06 09:19:46;;;;;;;14.20;4.93;;;9.00;99.90;;;;;;5070802;28;20488;-72
2022/04/06 09:22:12;;;;;;;10.20;4.30;;;9.10;99.90;;;;;;5053823;28;20182;-72
2022/04/06 09:24:38;;;;;;;12.40;6.40;;;9.30;99.90;;;;;;5053525;28;20123;-71
2022/04/06 09:27:05;;;;;;;16.80;4.90;;;9.40;99.90;;;;;;5053187;28;20055;-72
2022/04/06 09:29:31;;;;;;;9.68;3.67;;;9.50;99.90;;;;;;5053516;28;20060;-72
2022/04/06 09:32:06;;;;;;;8.95;3.63;;;9.40;99.90;;;;;;5053712;28;20044;-72
2022/04/06 09:34:33;;;;;;;9.02;3.90;;;9.50;99.90;;;;;;5053604;28;20044;-72
2022/04/06 09:36:58;;;;;;;9.27;4.10;;;9.50;99.90;;;;;;5053540;28;20037;-72
2022/04/06 09:39:43;;;;;;;11.88;3.95;;;9.50;99.90;;;;;;5053400;28;20037;-72
2022/04/06 09:42:17;;;;;;;6.80;2.88;;;9.50;99.90;;;;;;5053725;28;20543;-73
2022/04/06 09:47:51;;;;;;;9.43;3.38;;;9.50;99.90;;;;;;5039357;28;20083;-73
2022/04/06 09:50:22;;;;;;;9.48;3.83;;;9.50;99.90;;;;;;5036974;28;20048;-73
2022/04/06 09:52:49;;;;;;;9.57;3.53;;;9.50;99.90;;;;;;5053831;28;20041;-73
2022/04/06 09:55:16;;;;;;;16.95;3.42;;;9.50;99.90;;;;;;5053378;28;20072;-73
2022/04/06 09:57:44;;;;;;;10.85;3.72;;;9.50;99.90;;;;;;5053348;28;20059;-73
2022/04/06 10:00:13;;;;;;;8.20;4.13;;;9.60;99.90;;;;;;5036792;28;20068;-73
2022/04/06 10:02:41;;;;;;;10.65;3.40;;;9.60;99.90;;;;;;5053369;28;20074;-73
2022/04/06 10:05:12;;;;;;;7.57;3.70;;;9.70;99.90;;;;;;5053417;28;20101;-73
2022/04/06 10:07:39;;;;;;;10.48;3.40;;;9.70;99.90;;;;;;5020695;28;20476;-73
2022/04/06 10:10:05;;;;;;;10.65;4.32;;;9.80;99.90;;;;;;5036614;28;20044;-72
2022/04/06 10:12:32;;;;;;;10.45;4.18;;;9.80;99.90;;;;;;5053174;28;20052;-72
2022/04/06 10:15:00;;;;;;;11.60;4.03;;;9.90;99.90;;;;;;5053596;28;20399;-72
2022/04/06 10:17:29;;;;;;;8.65;3.45;;;9.90;99.90;;;;;;5036836;28;20106;-72
2022/04/06 10:20:23;;;;;;;14.25;4.88;;;9.90;99.90;;;;;;5053530;28;20124;-72
2022/04/06 10:23:12;;;;;;;13.90;5.00;;;9.90;99.90;;;;;;5016353;28;20412;-72
2022/04/06 10:26:11;;;;;;;9.65;4.55;;;9.80;99.90;;;;;;5052933;28;20050;-72
2022/04/06 10:28:38;;;;;;;12.60;5.00;;;9.90;99.90;;;;;;5052970;28;20135;-72
2022/04/06 10:31:13;;;;;;;8.77;3.78;;;9.90;99.90;;;;;;5036442;28;20081;-72
2022/04/06 10:33:39;;;;;;;9.85;4.93;;;9.90;99.90;;;;;;5036860;28;20040;-72
2022/04/06 10:36:29;;;;;;;13.70;5.45;;;9.80;99.90;;;;;;5053066;28;20052;-70
2022/04/06 10:39:08;;;;;;;12.48;5.10;;;9.90;99.90;;;;;;5053689;28;20043;-72
2022/04/06 10:41:37;;;;;;;12.15;5.35;;;9.90;99.90;;;;;;5039794;28;20128;-72
2022/04/06 10:44:03;;;;;;;9.90;4.60;;;9.90;99.90;;;;;;5039947;28;20036;-72
2022/04/06 10:46:39;;;;;;;8.55;4.07;;;9.90;99.90;;;;;;5056520;28;20041;-71
2022/04/06 10:49:09;;;;;;;15.60;5.70;;;9.90;99.90;;;;;;5056686;28;20049;-73
2022/04/06 10:51:56;;;;;;;13.35;5.53;;;9.90;99.90;;;;;;5074416;28;20045;-72
2022/04/06 10:54:23;;;;;;;14.15;4.60;;;9.90;99.90;;;;;;5056411;28;20049;-72
2022/04/06 10:57:00;;;;;;;13.05;6.30;;;9.90;99.90;;;;;;5056270;28;20156;-72
2022/04/06 10:59:30;;;;;;;19.13;6.15;;;10.10;99.90;;;;;;5073285;28;20032;-72
2022/04/06 11:02:14;;;;;;;13.05;5.82;;;9.80;99.90;;;;;;5056235;28;20119;-71
2022/04/06 11:04:40;;;;;;;9.77;4.93;;;9.70;99.90;;;;;;5056533;28;20068;-72
2022/04/06 11:07:08;;;;;;;10.38;5.07;;;9.70;99.90;;;;;;5039408;28;20072;-71
2022/04/06 11:12:26;;;;;;;16.77;5.53;;;9.70;99.90;;;;;;5042228;28;20494;-72
2022/04/06 11:15:00;;;;;;;12.10;6.03;;;9.70;99.90;;;;;;5039308;28;20055;-72
2022/04/06 11:20:13;;;;;;;14.00;6.57;;;9.90;99.90;;;;;;5056034;28;20040;-73
2022/04/06 11:22:43;;;;;;;14.88;6.30;;;9.90;99.90;;;;;;5056253;28;20044;-72
2022/04/06 11:25:14;;;;;;;17.45;6.72;;;9.90;99.90;;;;;;5055876;28;20063;-71
2022/04/06 11:27:43;;;;;;;16.65;6.60;;;9.90;99.90;;;;;;5055932;28;20056;-71
2022/04/06 11:30:17;;;;;;;15.15;7.30;;;10.00;99.90;;;;;;5038954;28;20060;-72
2022/04/06 11:32:50;;;;;;;15.05;6.72;;;10.10;99.90;;;;;;5056211;28;20040;-72
2022/04/06 11:35:17;;;;;;;14.85;7.43;;;10.20;99.90;;;;;;5055860;28;20499;-73
2022/04/06 11:37:48;;;;;;;12.32;7.32;;;10.10;99.90;;;;;;5039153;28;20093;-72
2022/04/06 11:40:25;;;;;;;12.05;6.18;;;10.10;99.90;;;;;;5055439;28;20040;-72
2022/04/06 11:42:52;;;;;;;11.10;7.32;;;10.10;99.90;;;;;;5055540;28;20041;-72
2022/04/06 11:45:26;;;;;;;12.00;5.65;;;10.10;99.90;;;;;;5055455;28;20080;-73
2022/04/06 11:47:53;;;;;;;12.30;7.15;;;10.10;99.90;;;;;;5038655;28;20040;-72
2022/04/06 11:50:19;;;;;;;16.33;8.27;;;10.20;99.90;;;;;;5038627;28;20427;-72
2022/04/06 11:52:45;;;;;;;13.55;7.60;;;10.40;99.90;;;;;;5055130;28;20036;-72
2022/04/06 11:55:11;;;;;;;9.93;6.45;;;10.60;99.90;;;;;;5055163;28;20047;-72
2022/04/06 11:57:45;;;;;;;6.45;4.10;;;10.70;99.90;;;;;;5038998;28;20412;-71
2022/04/06 12:00:13;;;;;;;11.20;5.85;;;10.80;99.90;;;;;;5055148;28;20044;-72
2022/04/06 12:02:53;;;;;;;8.50;3.80;;;10.80;99.90;;;;;;5071741;28;20127;-72
2022/04/06 12:05:20;;;;;;;14.15;5.40;;;10.80;99.90;;;;;;5055186;28;20044;-72
2022/04/06 12:07:46;;;;;;;11.27;5.50;;;10.90;99.90;;;;;;5038577;28;20052;-72
2022/04/06 12:10:14;;;;;;;18.20;7.45;;;10.90;99.90;;;;;;5038724;28;20096;-72
2022/04/06 12:12:41;;;;;;;7.93;4.90;;;10.80;99.90;;;;;;5038317;28;20049;-72
2022/04/06 12:15:08;;;;;;;12.07;7.50;;;10.70;99.90;;;;;;5038212;28;20052;-71
2022/04/06 12:17:36;;;;;;;12.20;6.38;;;10.60;99.90;;;;;;5038275;28;20105;-71
2022/04/06 12:20:21;;;;;;;12.68;6.10;;;10.50;99.90;;;;;;5054941;28;20044;-71
2022/04/06 12:23:05;;;;;;;17.42;7.13;;;10.40;99.90;;;;;;5038420;28;20040;-72
2022/04/06 12:25:33;;;;;;;13.90;7.72;;;10.50;99.90;;;;;;5055047;28;20037;-71
2022/04/06 12:28:14;;;;;;;15.05;5.88;;;10.70;99.90;;;;;;5054673;28;20040;-71
2022/04/06 12:31:12;;;;;;;9.40;6.20;;;10.80;99.90;;;;;;5037852;28;20101;-71
2022/04/06 12:33:40;;;;;;;12.95;5.57;;;10.90;99.90;;;;;;5039529;28;20056;-71
2022/04/06 12:36:16;;;;;;;13.00;5.57;;;10.90;99.90;;;;;;5054345;28;20123;-71
2022/04/06 12:39:14;;;;;;;16.35;8.30;;;10.90;99.90;;;;;;5054792;28;20045;-72
2022/04/06 12:42:07;;;;;;;15.02;6.97;;;11.00;99.90;;;;;;5054460;28;20040;-72
2022/04/06 12:44:34;;;;;;;13.35;6.35;;;11.00;99.90;;;;;;5054491;28;20041;-72
2022/04/06 12:47:01;;;;;;;17.33;6.18;;;11.10;99.90;;;;;;5037720;28;20051;-72
2022/04/06 12:49:41;;;;;;;13.63;6.25;;;11.20;99.90;;;;;;5037590;28;20048;-72
2022/04/06 12:52:20;;;;;;;13.55;6.05;;;11.30;99.90;;;;;;5038002;28;20047;-72
2022/04/06 12:55:00;;;;;;;7.80;4.72;;;11.50;99.90;;;;;;5037495;28;20040;-72
2022/04/06 12:57:25;;;;;;;10.48;5.57;;;11.60;99.90;;;;;;5037825;28;20041;-72
2022/04/06 12:59:56;;;;;;;12.25;5.05;;;11.80;99.90;;;;;;5037566;28;20055;-72
2022/04/06 13:02:33;;;;;;;11.40;5.07;;;11.80;99.90;;;;;;5070020;28;20044;-72
2022/04/06 13:05:00;;;;;;;7.50;3.33;;;11.90;99.90;;;;;;5054433;28;20507;-71